sensor_id;sensor_type;location;lat;lon;timestamp;P1;durP1;ratioP1;P2;durP2;ratioP2
14171;SDS011;7165;52.388;4.928;2023-02-02T00:01:32;18.58;;;6.05;;
14171;SDS011;7165;52.388;4.928;2023-02-02T00:04:00;12.43;;;7.03;;
14171;SDS011;7165;52.388;4.928;2023-02-02T00:06:27;22.70;;;7.75;;
14171;SDS011;7165;52.388;4.928;2023-02-02T00:08:57;12.30;;;4.97;;
14171;SDS011;7165;52.388;4.928;2023-02-02T00:11:26;14.15;;;5.05;;
14171;SDS011;7165;52.388;4.928;2023-02-02T00:13:53;16.58;;;4.78;;
14171;SDS011;7165;52.388;4.928;2023-02-02T00:16:20;16.15;;;5.30;;
14171;SDS011;7165;52.388;4.928;2023-02-02T00:19:02;18.92;;;6.35;;
14171;SDS011;7165;52.388;4.928;2023-02-02T00:21:31;20.40;;;6.63;;
14171;SDS011;7165;52.388;4.928;2023-02-02T00:23:59;15.13;;;4.63;;
14171;SDS011;7165;52.388;4.928;2023-02-02T00:26:26;11.55;;;5.32;;
14171;SDS011;7165;52.388;4.928;2023-02-02T00:28:53;13.65;;;4.47;;
14171;SDS011;7165;52.388;4.928;2023-02-02T00:31:20;15.07;;;4.03;;
14171;SDS011;7165;52.388;4.928;2023-02-02T00:33:47;8.23;;;3.88;;
14171;SDS011;7165;52.388;4.928;2023-02-02T00:36:15;7.67;;;3.40;;
14171;SDS011;7165;52.388;4.928;2023-02-02T00:38:42;6.57;;;3.80;;
14171;SDS011;7165;52.388;4.928;2023-02-02T00:41:10;8.93;;;4.03;;
14171;SDS011;7165;52.388;4.928;2023-02-02T00:43:37;9.15;;;3.33;;
14171;SDS011;7165;52.388;4.928;2023-02-02T00:46:05;4.57;;;3.47;;
14171;SDS011;7165;52.388;4.928;2023-02-02T00:48:34;4.93;;;2.95;;
14171;SDS011;7165;52.388;4.928;2023-02-02T00:51:00;5.77;;;3.23;;
14171;SDS011;7165;52.388;4.928;2023-02-02T00:53:27;4.43;;;3.08;;
14171;SDS011;7165;52.388;4.928;2023-02-02T00:55:54;6.40;;;2.80;;
14171;SDS011;7165;52.388;4.928;2023-02-02T00:58:22;12.10;;;3.78;;
14171;SDS011;7165;52.388;4.928;2023-02-02T01:00:49;5.68;;;3.28;;
14171;SDS011;7165;52.388;4.928;2023-02-02T01:03:15;10.13;;;3.25;;
14171;SDS011;7165;52.388;4.928;2023-02-02T01:05:42;3.13;;;2.83;;
14171;SDS011;7165;52.388;4.928;2023-02-02T01:08:09;5.75;;;3.20;;
14171;SDS011;7165;52.388;4.928;2023-02-02T01:10:36;6.33;;;3.47;;
14171;SDS011;7165;52.388;4.928;2023-02-02T01:13:02;6.15;;;3.25;;
14171;SDS011;7165;52.388;4.928;2023-02-02T01:15:31;5.40;;;3.10;;
14171;SDS011;7165;52.388;4.928;2023-02-02T01:17:57;10.50;;;3.72;;
14171;SDS011;7165;52.388;4.928;2023-02-02T01:20:24;7.82;;;3.72;;
14171;SDS011;7165;52.388;4.928;2023-02-02T01:22:51;6.18;;;3.40;;
14171;SDS011;7165;52.388;4.928;2023-02-02T01:25:18;5.67;;;3.17;;
14171;SDS011;7165;52.388;4.928;2023-02-02T01:27:44;10.60;;;3.67;;
14171;SDS011;7165;52.388;4.928;2023-02-02T01:30:11;5.23;;;3.57;;
14171;SDS011;7165;52.388;4.928;2023-02-02T01:32:40;7.97;;;4.15;;
14171;SDS011;7165;52.388;4.928;2023-02-02T01:35:06;13.50;;;5.17;;
14171;SDS011;7165;52.388;4.928;2023-02-02T01:37:34;11.17;;;5.60;;
14171;SDS011;7165;52.388;4.928;2023-02-02T01:40:00;12.68;;;5.90;;
14171;SDS011;7165;52.388;4.928;2023-02-02T01:42:27;10.07;;;5.45;;
14171;SDS011;7165;52.388;4.928;2023-02-02T01:47:46;16.00;;;5.43;;
14171;SDS011;7165;52.388;4.928;2023-02-02T01:50:16;10.20;;;4.73;;
14171;SDS011;7165;52.388;4.928;2023-02-02T01:52:44;15.10;;;5.63;;
14171;SDS011;7165;52.388;4.928;2023-02-02T01:55:15;14.10;;;6.00;;
14171;SDS011;7165;52.388;4.928;2023-02-02T01:57:45;16.00;;;6.63;;
14171;SDS011;7165;52.388;4.928;2023-02-02T02:00:16;15.27;;;6.97;;
14171;SDS011;7165;52.388;4.928;2023-02-02T02:02:50;18.67;;;7.47;;
14171;SDS011;7165;52.388;4.928;2023-02-02T02:05:22;18.30;;;7.93;;
14171;SDS011;7165;52.388;4.928;2023-02-02T02:07:52;17.93;;;7.50;;
14171;SDS011;7165;52.388;4.928;2023-02-02T02:10:22;18.15;;;7.75;;
14171;SDS011;7165;52.388;4.928;2023-02-02T02:12:49;26.00;;;8.97;;
14171;SDS011;7165;52.388;4.928;2023-02-02T02:15:16;19.93;;;7.43;;
14171;SDS011;7165;52.388;4.928;2023-02-02T02:18:06;23.30;;;8.03;;
14171;SDS011;7165;52.388;4.928;2023-02-02T02:20:55;25.90;;;8.13;;
14171;SDS011;7165;52.388;4.928;2023-02-02T02:30:55;16.27;;;6.60;;
14171;SDS011;7165;52.388;4.928;2023-02-02T02:33:38;14.97;;;7.17;;
14171;SDS011;7165;52.388;4.928;2023-02-02T02:36:14;14.18;;;6.05;;
14171;SDS011;7165;52.388;4.928;2023-02-02T02:38:46;16.23;;;5.70;;
14171;SDS011;7165;52.388;4.928;2023-02-02T02:41:20;23.53;;;7.67;;
14171;SDS011;7165;52.388;4.928;2023-02-02T02:43:51;24.23;;;7.93;;
14171;SDS011;7165;52.388;4.928;2023-02-02T02:46:22;23.95;;;7.13;;
14171;SDS011;7165;52.388;4.928;2023-02-02T02:48:51;19.17;;;6.90;;
14171;SDS011;7165;52.388;4.928;2023-02-02T02:54:08;19.57;;;7.73;;
14171;SDS011;7165;52.388;4.928;2023-02-02T02:56:37;21.27;;;7.77;;
14171;SDS011;7165;52.388;4.928;2023-02-02T02:59:13;15.77;;;6.30;;
14171;SDS011;7165;52.388;4.928;2023-02-02T03:01:48;23.20;;;6.55;;
14171;SDS011;7165;52.388;4.928;2023-02-02T03:04:22;16.40;;;5.90;;
14171;SDS011;7165;52.388;4.928;2023-02-02T03:06:54;21.98;;;7.72;;
14171;SDS011;7165;52.388;4.928;2023-02-02T03:09:26;21.08;;;6.90;;
14171;SDS011;7165;52.388;4.928;2023-02-02T03:11:58;14.68;;;5.97;;
14171;SDS011;7165;52.388;4.928;2023-02-02T03:14:26;21.55;;;6.63;;
14171;SDS011;7165;52.388;4.928;2023-02-02T03:16:53;16.83;;;7.20;;
14171;SDS011;7165;52.388;4.928;2023-02-02T03:19:19;22.48;;;7.10;;
14171;SDS011;7165;52.388;4.928;2023-02-02T03:21:48;22.00;;;7.55;;
14171;SDS011;7165;52.388;4.928;2023-02-02T03:24:15;21.52;;;7.15;;
14171;SDS011;7165;52.388;4.928;2023-02-02T03:26:41;22.25;;;7.95;;
14171;SDS011;7165;52.388;4.928;2023-02-02T03:29:09;21.00;;;7.27;;
14171;SDS011;7165;52.388;4.928;2023-02-02T03:31:36;20.02;;;6.60;;
14171;SDS011;7165;52.388;4.928;2023-02-02T03:34:03;27.65;;;7.85;;
14171;SDS011;7165;52.388;4.928;2023-02-02T03:36:31;18.23;;;7.85;;
14171;SDS011;7165;52.388;4.928;2023-02-02T03:38:57;18.60;;;6.90;;
14171;SDS011;7165;52.388;4.928;2023-02-02T03:41:24;17.95;;;6.47;;
14171;SDS011;7165;52.388;4.928;2023-02-02T03:43:51;21.27;;;7.47;;
14171;SDS011;7165;52.388;4.928;2023-02-02T03:46:17;19.00;;;7.32;;
14171;SDS011;7165;52.388;4.928;2023-02-02T03:48:44;18.20;;;6.28;;
14171;SDS011;7165;52.388;4.928;2023-02-02T03:51:12;19.23;;;7.28;;
14171;SDS011;7165;52.388;4.928;2023-02-02T03:53:41;22.23;;;7.90;;
14171;SDS011;7165;52.388;4.928;2023-02-02T03:56:11;20.20;;;7.37;;
14171;SDS011;7165;52.388;4.928;2023-02-02T03:58:38;28.47;;;6.97;;
14171;SDS011;7165;52.388;4.928;2023-02-02T04:01:05;19.63;;;7.73;;
14171;SDS011;7165;52.388;4.928;2023-02-02T04:03:35;15.87;;;6.17;;
14171;SDS011;7165;52.388;4.928;2023-02-02T04:06:02;23.15;;;7.35;;
14171;SDS011;7165;52.388;4.928;2023-02-02T04:08:29;17.25;;;6.57;;
14171;SDS011;7165;52.388;4.928;2023-02-02T04:10:59;20.23;;;6.87;;
14171;SDS011;7165;52.388;4.928;2023-02-02T04:13:26;23.67;;;7.47;;
14171;SDS011;7165;52.388;4.928;2023-02-02T04:15:57;24.27;;;7.03;;
14171;SDS011;7165;52.388;4.928;2023-02-02T04:18:24;18.10;;;7.55;;
14171;SDS011;7165;52.388;4.928;2023-02-02T04:20:54;20.92;;;7.15;;
14171;SDS011;7165;52.388;4.928;2023-02-02T04:23:22;16.77;;;6.72;;
14171;SDS011;7165;52.388;4.928;2023-02-02T04:25:48;16.43;;;5.90;;
14171;SDS011;7165;52.388;4.928;2023-02-02T04:28:17;20.37;;;7.57;;
14171;SDS011;7165;52.388;4.928;2023-02-02T04:30:44;18.73;;;6.40;;
14171;SDS011;7165;52.388;4.928;2023-02-02T04:33:11;17.83;;;5.80;;
14171;SDS011;7165;52.388;4.928;2023-02-02T04:35:37;17.55;;;7.28;;
14171;SDS011;7165;52.388;4.928;2023-02-02T04:38:04;20.27;;;7.40;;
14171;SDS011;7165;52.388;4.928;2023-02-02T04:40:31;18.50;;;6.95;;
14171;SDS011;7165;52.388;4.928;2023-02-02T04:42:57;19.25;;;7.93;;
14171;SDS011;7165;52.388;4.928;2023-02-02T04:45:25;16.58;;;6.32;;
14171;SDS011;7165;52.388;4.928;2023-02-02T04:47:52;16.80;;;6.28;;
14171;SDS011;7165;52.388;4.928;2023-02-02T04:50:19;21.92;;;7.45;;
14171;SDS011;7165;52.388;4.928;2023-02-02T04:52:46;15.63;;;7.10;;
14171;SDS011;7165;52.388;4.928;2023-02-02T04:55:12;16.77;;;6.67;;
14171;SDS011;7165;52.388;4.928;2023-02-02T04:57:39;19.27;;;6.30;;
14171;SDS011;7165;52.388;4.928;2023-02-02T05:00:07;19.08;;;6.30;;
14171;SDS011;7165;52.388;4.928;2023-02-02T05:02:36;17.58;;;6.70;;
14171;SDS011;7165;52.388;4.928;2023-02-02T05:05:04;17.92;;;7.85;;
14171;SDS011;7165;52.388;4.928;2023-02-02T05:07:32;20.58;;;6.72;;
14171;SDS011;7165;52.388;4.928;2023-02-02T05:09:59;23.25;;;7.53;;
14171;SDS011;7165;52.388;4.928;2023-02-02T05:12:26;16.25;;;6.32;;
14171;SDS011;7165;52.388;4.928;2023-02-02T05:14:53;19.67;;;7.00;;
14171;SDS011;7165;52.388;4.928;2023-02-02T05:17:19;12.55;;;6.47;;
14171;SDS011;7165;52.388;4.928;2023-02-02T05:19:47;18.77;;;7.03;;
14171;SDS011;7165;52.388;4.928;2023-02-02T05:22:14;15.48;;;6.03;;
14171;SDS011;7165;52.388;4.928;2023-02-02T05:24:41;17.30;;;5.95;;
14171;SDS011;7165;52.388;4.928;2023-02-02T05:27:08;18.50;;;6.65;;
14171;SDS011;7165;52.388;4.928;2023-02-02T05:29:34;16.17;;;5.80;;
14171;SDS011;7165;52.388;4.928;2023-02-02T05:32:01;14.15;;;5.57;;
14171;SDS011;7165;52.388;4.928;2023-02-02T05:34:28;19.95;;;6.63;;
14171;SDS011;7165;52.388;4.928;2023-02-02T05:36:56;18.38;;;6.68;;
14171;SDS011;7165;52.388;4.928;2023-02-02T05:39:23;16.60;;;5.83;;
14171;SDS011;7165;52.388;4.928;2023-02-02T05:41:49;14.63;;;5.45;;
14171;SDS011;7165;52.388;4.928;2023-02-02T05:44:16;13.20;;;6.18;;
14171;SDS011;7165;52.388;4.928;2023-02-02T05:46:43;16.17;;;5.88;;
14171;SDS011;7165;52.388;4.928;2023-02-02T05:49:10;15.40;;;6.15;;
14171;SDS011;7165;52.388;4.928;2023-02-02T05:51:39;16.98;;;6.15;;
14171;SDS011;7165;52.388;4.928;2023-02-02T05:54:10;16.10;;;6.25;;
14171;SDS011;7165;52.388;4.928;2023-02-02T05:56:37;16.60;;;7.37;;
14171;SDS011;7165;52.388;4.928;2023-02-02T05:59:03;12.90;;;5.40;;
14171;SDS011;7165;52.388;4.928;2023-02-02T06:01:31;14.73;;;6.85;;
14171;SDS011;7165;52.388;4.928;2023-02-02T06:03:59;18.77;;;6.77;;
14171;SDS011;7165;52.388;4.928;2023-02-02T06:06:25;19.45;;;6.35;;
14171;SDS011;7165;52.388;4.928;2023-02-02T06:08:52;15.70;;;6.53;;
14171;SDS011;7165;52.388;4.928;2023-02-02T06:11:20;15.80;;;6.00;;
14171;SDS011;7165;52.388;4.928;2023-02-02T06:13:47;18.75;;;7.40;;
14171;SDS011;7165;52.388;4.928;2023-02-02T06:16:14;19.00;;;6.70;;
14171;SDS011;7165;52.388;4.928;2023-02-02T06:18:41;15.57;;;6.50;;
14171;SDS011;7165;52.388;4.928;2023-02-02T06:21:08;21.02;;;7.70;;
14171;SDS011;7165;52.388;4.928;2023-02-02T06:23:36;17.73;;;7.07;;
14171;SDS011;7165;52.388;4.928;2023-02-02T06:26:03;16.58;;;7.47;;
14171;SDS011;7165;52.388;4.928;2023-02-02T06:28:33;21.77;;;7.20;;
14171;SDS011;7165;52.388;4.928;2023-02-02T06:31:03;18.40;;;6.45;;
14171;SDS011;7165;52.388;4.928;2023-02-02T06:33:31;17.67;;;6.45;;
14171;SDS011;7165;52.388;4.928;2023-02-02T06:35:58;17.10;;;6.93;;
14171;SDS011;7165;52.388;4.928;2023-02-02T06:38:26;20.10;;;6.63;;
14171;SDS011;7165;52.388;4.928;2023-02-02T06:40:53;14.00;;;6.50;;
14171;SDS011;7165;52.388;4.928;2023-02-02T06:43:20;19.45;;;7.18;;
14171;SDS011;7165;52.388;4.928;2023-02-02T06:45:48;13.27;;;6.70;;
14171;SDS011;7165;52.388;4.928;2023-02-02T06:48:14;19.53;;;8.63;;
14171;SDS011;7165;52.388;4.928;2023-02-02T06:50:41;15.07;;;5.75;;
14171;SDS011;7165;52.388;4.928;2023-02-02T06:53:08;17.15;;;6.13;;
14171;SDS011;7165;52.388;4.928;2023-02-02T06:55:34;17.45;;;6.85;;
14171;SDS011;7165;52.388;4.928;2023-02-02T06:58:01;21.63;;;7.47;;
14171;SDS011;7165;52.388;4.928;2023-02-02T07:00:28;16.77;;;7.40;;
14171;SDS011;7165;52.388;4.928;2023-02-02T07:02:57;17.17;;;6.30;;
14171;SDS011;7165;52.388;4.928;2023-02-02T07:05:24;18.40;;;7.35;;
14171;SDS011;7165;52.388;4.928;2023-02-02T07:07:53;15.05;;;6.22;;
14171;SDS011;7165;52.388;4.928;2023-02-02T07:10:20;21.17;;;7.77;;
14171;SDS011;7165;52.388;4.928;2023-02-02T07:12:47;17.65;;;6.18;;
14171;SDS011;7165;52.388;4.928;2023-02-02T07:15:14;17.90;;;6.23;;
14171;SDS011;7165;52.388;4.928;2023-02-02T07:17:41;20.05;;;7.25;;
14171;SDS011;7165;52.388;4.928;2023-02-02T07:20:09;16.13;;;7.35;;
14171;SDS011;7165;52.388;4.928;2023-02-02T07:22:37;19.00;;;5.85;;
14171;SDS011;7165;52.388;4.928;2023-02-02T07:25:04;24.98;;;7.90;;
14171;SDS011;7165;52.388;4.928;2023-02-02T07:27:31;16.55;;;7.10;;
14171;SDS011;7165;52.388;4.928;2023-02-02T07:29:58;21.17;;;7.70;;
14171;SDS011;7165;52.388;4.928;2023-02-02T07:32:25;21.70;;;6.55;;
14171;SDS011;7165;52.388;4.928;2023-02-02T07:34:51;18.47;;;7.07;;
14171;SDS011;7165;52.388;4.928;2023-02-02T07:37:19;16.77;;;6.53;;
14171;SDS011;7165;52.388;4.928;2023-02-02T07:39:46;15.70;;;6.60;;
14171;SDS011;7165;52.388;4.928;2023-02-02T07:42:13;18.50;;;7.75;;
14171;SDS011;7165;52.388;4.928;2023-02-02T07:44:40;19.52;;;6.90;;
14171;SDS011;7165;52.388;4.928;2023-02-02T07:47:06;19.58;;;7.32;;
14171;SDS011;7165;52.388;4.928;2023-02-02T07:49:33;20.92;;;6.43;;
14171;SDS011;7165;52.388;4.928;2023-02-02T07:52:00;16.48;;;6.13;;
14171;SDS011;7165;52.388;4.928;2023-02-02T07:54:28;21.35;;;7.25;;
14171;SDS011;7165;52.388;4.928;2023-02-02T07:56:56;19.90;;;6.95;;
14171;SDS011;7165;52.388;4.928;2023-02-02T07:59:25;15.97;;;6.87;;
14171;SDS011;7165;52.388;4.928;2023-02-02T08:01:51;19.58;;;6.85;;
14171;SDS011;7165;52.388;4.928;2023-02-02T08:04:18;20.15;;;6.95;;
14171;SDS011;7165;52.388;4.928;2023-02-02T08:06:45;15.48;;;6.47;;
14171;SDS011;7165;52.388;4.928;2023-02-02T08:09:12;20.02;;;7.05;;
14171;SDS011;7165;52.388;4.928;2023-02-02T08:11:40;15.32;;;6.47;;
14171;SDS011;7165;52.388;4.928;2023-02-02T08:14:09;21.07;;;7.17;;
14171;SDS011;7165;52.388;4.928;2023-02-02T08:16:37;17.02;;;6.40;;
14171;SDS011;7165;52.388;4.928;2023-02-02T08:19:04;16.02;;;7.38;;
14171;SDS011;7165;52.388;4.928;2023-02-02T08:21:31;19.80;;;6.65;;
14171;SDS011;7165;52.388;4.928;2023-02-02T08:23:59;17.13;;;5.72;;
14171;SDS011;7165;52.388;4.928;2023-02-02T08:26:26;13.73;;;6.72;;
14171;SDS011;7165;52.388;4.928;2023-02-02T08:28:56;12.80;;;5.75;;
14171;SDS011;7165;52.388;4.928;2023-02-02T08:31:25;11.27;;;5.68;;
14171;SDS011;7165;52.388;4.928;2023-02-02T08:33:53;19.02;;;6.55;;
14171;SDS011;7165;52.388;4.928;2023-02-02T08:36:22;14.23;;;5.35;;
14171;SDS011;7165;52.388;4.928;2023-02-02T08:38:49;16.42;;;6.28;;
14171;SDS011;7165;52.388;4.928;2023-02-02T08:41:18;19.95;;;6.70;;
14171;SDS011;7165;52.388;4.928;2023-02-02T08:43:46;16.10;;;6.20;;
14171;SDS011;7165;52.388;4.928;2023-02-02T08:46:15;15.63;;;6.45;;
14171;SDS011;7165;52.388;4.928;2023-02-02T08:48:43;17.65;;;6.03;;
14171;SDS011;7165;52.388;4.928;2023-02-02T08:51:10;13.27;;;6.22;;
14171;SDS011;7165;52.388;4.928;2023-02-02T08:53:39;16.42;;;6.65;;
14171;SDS011;7165;52.388;4.928;2023-02-02T08:56:07;18.85;;;6.43;;
14171;SDS011;7165;52.388;4.928;2023-02-02T08:58:36;21.35;;;7.22;;
14171;SDS011;7165;52.388;4.928;2023-02-02T09:01:03;17.55;;;6.13;;
14171;SDS011;7165;52.388;4.928;2023-02-02T09:03:33;18.67;;;6.35;;
14171;SDS011;7165;52.388;4.928;2023-02-02T09:06:03;26.75;;;7.90;;
14171;SDS011;7165;52.388;4.928;2023-02-02T09:08:30;18.73;;;6.78;;
14171;SDS011;7165;52.388;4.928;2023-02-02T09:11:01;15.93;;;6.28;;
14171;SDS011;7165;52.388;4.928;2023-02-02T09:13:29;15.77;;;6.70;;
14171;SDS011;7165;52.388;4.928;2023-02-02T09:15:57;16.75;;;6.10;;
14171;SDS011;7165;52.388;4.928;2023-02-02T09:18:25;13.65;;;6.85;;
14171;SDS011;7165;52.388;4.928;2023-02-02T09:20:53;19.27;;;5.90;;
14171;SDS011;7165;52.388;4.928;2023-02-02T09:23:20;19.75;;;6.22;;
14171;SDS011;7165;52.388;4.928;2023-02-02T09:25:46;14.15;;;6.05;;
14171;SDS011;7165;52.388;4.928;2023-02-02T09:28:13;17.95;;;7.38;;
14171;SDS011;7165;52.388;4.928;2023-02-02T09:30:40;13.52;;;5.78;;
14171;SDS011;7165;52.388;4.928;2023-02-02T09:33:07;16.25;;;6.43;;
14171;SDS011;7165;52.388;4.928;2023-02-02T09:35:33;18.88;;;6.38;;
14171;SDS011;7165;52.388;4.928;2023-02-02T09:38:02;21.50;;;7.10;;
14171;SDS011;7165;52.388;4.928;2023-02-02T09:40:29;21.90;;;7.22;;
14171;SDS011;7165;52.388;4.928;2023-02-02T09:43:00;15.40;;;7.05;;
14171;SDS011;7165;52.388;4.928;2023-02-02T09:45:33;18.20;;;6.72;;
14171;SDS011;7165;52.388;4.928;2023-02-02T09:48:09;17.73;;;6.35;;
14171;SDS011;7165;52.388;4.928;2023-02-02T09:50:46;18.15;;;6.80;;
14171;SDS011;7165;52.388;4.928;2023-02-02T09:53:21;17.92;;;6.22;;
14171;SDS011;7165;52.388;4.928;2023-02-02T09:55:54;18.35;;;6.63;;
14171;SDS011;7165;52.388;4.928;2023-02-02T09:58:24;20.80;;;7.78;;
14171;SDS011;7165;52.388;4.928;2023-02-02T10:00:54;16.52;;;6.78;;
14171;SDS011;7165;52.388;4.928;2023-02-02T10:03:26;14.68;;;5.70;;
14171;SDS011;7165;52.388;4.928;2023-02-02T10:06:00;17.83;;;7.40;;
14171;SDS011;7165;52.388;4.928;2023-02-02T10:08:33;16.33;;;6.72;;
14171;SDS011;7165;52.388;4.928;2023-02-02T10:11:18;18.38;;;7.63;;
14171;SDS011;7165;52.388;4.928;2023-02-02T10:13:55;14.23;;;5.70;;
14171;SDS011;7165;52.388;4.928;2023-02-02T10:16:26;12.60;;;6.18;;
14171;SDS011;7165;52.388;4.928;2023-02-02T10:18:56;20.48;;;5.90;;
14171;SDS011;7165;52.388;4.928;2023-02-02T10:21:26;13.05;;;6.03;;
14171;SDS011;7165;52.388;4.928;2023-02-02T10:24:02;11.15;;;5.93;;
14171;SDS011;7165;52.388;4.928;2023-02-02T10:26:42;14.15;;;4.85;;
14171;SDS011;7165;52.388;4.928;2023-02-02T10:29:14;14.80;;;4.80;;
14171;SDS011;7165;52.388;4.928;2023-02-02T10:31:43;20.60;;;5.82;;
14171;SDS011;7165;52.388;4.928;2023-02-02T10:34:22;13.75;;;5.90;;
14171;SDS011;7165;52.388;4.928;2023-02-02T10:36:55;26.50;;;6.22;;
14171;SDS011;7165;52.388;4.928;2023-02-02T10:39:35;13.65;;;5.60;;
14171;SDS011;7165;52.388;4.928;2023-02-02T10:42:18;12.30;;;5.13;;
14171;SDS011;7165;52.388;4.928;2023-02-02T10:44:53;17.17;;;6.40;;
14171;SDS011;7165;52.388;4.928;2023-02-02T10:47:23;19.60;;;5.90;;
14171;SDS011;7165;52.388;4.928;2023-02-02T10:49:53;15.23;;;5.13;;
14171;SDS011;7165;52.388;4.928;2023-02-02T10:52:29;13.52;;;4.65;;
14171;SDS011;7165;52.388;4.928;2023-02-02T10:55:00;21.20;;;5.90;;
14171;SDS011;7165;52.388;4.928;2023-02-02T11:00:20;9.50;;;4.95;;
14171;SDS011;7165;52.388;4.928;2023-02-02T11:02:49;16.75;;;5.55;;
14171;SDS011;7165;52.388;4.928;2023-02-02T11:05:18;14.65;;;5.55;;
14171;SDS011;7165;52.388;4.928;2023-02-02T11:08:12;17.88;;;6.18;;
14171;SDS011;7165;52.388;4.928;2023-02-02T11:10:41;18.75;;;6.75;;
14171;SDS011;7165;52.388;4.928;2023-02-02T11:13:11;13.45;;;4.57;;
14171;SDS011;7165;52.388;4.928;2023-02-02T11:15:50;12.57;;;5.15;;
14171;SDS011;7165;52.388;4.928;2023-02-02T11:18:26;10.23;;;4.78;;
14171;SDS011;7165;52.388;4.928;2023-02-02T11:20:54;16.58;;;5.97;;
14171;SDS011;7165;52.388;4.928;2023-02-02T11:23:21;23.70;;;5.20;;
14171;SDS011;7165;52.388;4.928;2023-02-02T11:25:59;13.45;;;5.45;;
14171;SDS011;7165;52.388;4.928;2023-02-02T11:28:29;18.45;;;4.50;;
14171;SDS011;7165;52.388;4.928;2023-02-02T11:31:00;15.45;;;5.28;;
14171;SDS011;7165;52.388;4.928;2023-02-02T11:33:28;16.65;;;5.35;;
14171;SDS011;7165;52.388;4.928;2023-02-02T11:35:58;13.15;;;5.75;;
14171;SDS011;7165;52.388;4.928;2023-02-02T11:38:25;12.27;;;5.13;;
14171;SDS011;7165;52.388;4.928;2023-02-02T11:40:52;14.05;;;5.22;;
14171;SDS011;7165;52.388;4.928;2023-02-02T11:43:25;18.75;;;5.78;;
14171;SDS011;7165;52.388;4.928;2023-02-02T11:45:54;13.57;;;5.20;;
14171;SDS011;7165;52.388;4.928;2023-02-02T11:48:26;8.52;;;4.45;;
14171;SDS011;7165;52.388;4.928;2023-02-02T11:50:55;12.40;;;4.32;;
14171;SDS011;7165;52.388;4.928;2023-02-02T11:53:24;11.43;;;4.97;;
14171;SDS011;7165;52.388;4.928;2023-02-02T11:55:53;14.48;;;4.90;;
14171;SDS011;7165;52.388;4.928;2023-02-02T11:58:23;11.07;;;5.03;;
14171;SDS011;7165;52.388;4.928;2023-02-02T12:00:53;13.82;;;5.10;;
14171;SDS011;7165;52.388;4.928;2023-02-02T12:03:24;16.40;;;4.68;;
14171;SDS011;7165;52.388;4.928;2023-02-02T12:06:00;13.98;;;4.78;;
14171;SDS011;7165;52.388;4.928;2023-02-02T12:08:43;14.60;;;5.00;;
14171;SDS011;7165;52.388;4.928;2023-02-02T12:11:12;9.10;;;4.18;;
14171;SDS011;7165;52.388;4.928;2023-02-02T12:13:56;15.88;;;4.68;;
14171;SDS011;7165;52.388;4.928;2023-02-02T12:16:42;11.93;;;4.63;;
14171;SDS011;7165;52.388;4.928;2023-02-02T12:22:19;16.80;;;4.88;;
14171;SDS011;7165;52.388;4.928;2023-02-02T12:24:56;17.58;;;5.07;;
14171;SDS011;7165;52.388;4.928;2023-02-02T12:27:34;15.68;;;5.13;;
14171;SDS011;7165;52.388;4.928;2023-02-02T12:30:16;13.30;;;4.43;;
14171;SDS011;7165;52.388;4.928;2023-02-02T12:33:04;15.50;;;4.75;;
14171;SDS011;7165;52.388;4.928;2023-02-02T12:35:45;11.50;;;3.60;;
14171;SDS011;7165;52.388;4.928;2023-02-02T12:38:23;8.30;;;3.88;;
14171;SDS011;7165;52.388;4.928;2023-02-02T12:41:14;12.70;;;4.10;;
14171;SDS011;7165;52.388;4.928;2023-02-02T12:43:54;8.70;;;3.38;;
14171;SDS011;7165;52.388;4.928;2023-02-02T12:46:34;11.73;;;5.35;;
14171;SDS011;7165;52.388;4.928;2023-02-02T12:49:13;11.27;;;5.13;;
14171;SDS011;7165;52.388;4.928;2023-02-02T12:51:54;16.55;;;4.47;;
14171;SDS011;7165;52.388;4.928;2023-02-02T12:54:39;18.38;;;6.15;;
14171;SDS011;7165;52.388;4.928;2023-02-02T12:57:17;13.70;;;4.72;;
14171;SDS011;7165;52.388;4.928;2023-02-02T13:00:03;10.65;;;3.83;;
14171;SDS011;7165;52.388;4.928;2023-02-02T13:02:43;11.75;;;4.25;;
14171;SDS011;7165;52.388;4.928;2023-02-02T13:05:28;11.30;;;4.93;;
14171;SDS011;7165;52.388;4.928;2023-02-02T13:08:05;12.50;;;4.95;;
14171;SDS011;7165;52.388;4.928;2023-02-02T13:10:34;11.60;;;4.30;;
14171;SDS011;7165;52.388;4.928;2023-02-02T13:13:05;11.60;;;4.47;;
14171;SDS011;7165;52.388;4.928;2023-02-02T13:15:37;15.68;;;5.90;;
14171;SDS011;7165;52.388;4.928;2023-02-02T13:18:09;10.75;;;4.32;;
14171;SDS011;7165;52.388;4.928;2023-02-02T13:20:40;13.75;;;5.65;;
14171;SDS011;7165;52.388;4.928;2023-02-02T13:23:12;15.02;;;5.35;;
14171;SDS011;7165;52.388;4.928;2023-02-02T13:25:45;10.50;;;5.05;;
14171;SDS011;7165;52.388;4.928;2023-02-02T13:28:19;11.73;;;4.72;;
14171;SDS011;7165;52.388;4.928;2023-02-02T13:31:01;9.77;;;5.15;;
14171;SDS011;7165;52.388;4.928;2023-02-02T13:33:34;18.40;;;5.72;;
14171;SDS011;7165;52.388;4.928;2023-02-02T13:36:04;14.07;;;5.47;;
14171;SDS011;7165;52.388;4.928;2023-02-02T13:38:35;11.20;;;4.93;;
14171;SDS011;7165;52.388;4.928;2023-02-02T13:41:06;13.38;;;6.05;;
14171;SDS011;7165;52.388;4.928;2023-02-02T13:43:38;16.55;;;5.80;;
14171;SDS011;7165;52.388;4.928;2023-02-02T13:46:14;16.83;;;6.13;;
14171;SDS011;7165;52.388;4.928;2023-02-02T13:48:55;14.60;;;4.93;;
14171;SDS011;7165;52.388;4.928;2023-02-02T13:54:18;18.33;;;5.32;;
14171;SDS011;7165;52.388;4.928;2023-02-02T13:57:18;15.30;;;5.88;;
14171;SDS011;7165;52.388;4.928;2023-02-02T13:59:58;12.75;;;4.90;;
14171;SDS011;7165;52.388;4.928;2023-02-02T14:02:29;13.95;;;5.70;;
14171;SDS011;7165;52.388;4.928;2023-02-02T14:05:01;11.98;;;5.50;;
14171;SDS011;7165;52.388;4.928;2023-02-02T14:07:37;11.45;;;5.10;;
14171;SDS011;7165;52.388;4.928;2023-02-02T14:10:19;14.95;;;5.60;;
14171;SDS011;7165;52.388;4.928;2023-02-02T14:12:49;9.18;;;5.55;;
14171;SDS011;7165;52.388;4.928;2023-02-02T14:15:16;15.55;;;5.45;;
14171;SDS011;7165;52.388;4.928;2023-02-02T14:17:53;9.93;;;5.07;;
14171;SDS011;7165;52.388;4.928;2023-02-02T14:26:12;9.25;;;5.90;;
14171;SDS011;7165;52.388;4.928;2023-02-02T14:28:45;9.57;;;5.10;;
14171;SDS011;7165;52.388;4.928;2023-02-02T14:31:15;8.93;;;5.33;;
14171;SDS011;7165;52.388;4.928;2023-02-02T14:37:08;10.25;;;5.38;;
14171;SDS011;7165;52.388;4.928;2023-02-02T14:40:02;14.10;;;5.77;;
14171;SDS011;7165;52.388;4.928;2023-02-02T14:42:46;16.15;;;5.72;;
14171;SDS011;7165;52.388;4.928;2023-02-02T14:45:37;12.38;;;5.30;;
14171;SDS011;7165;52.388;4.928;2023-02-02T14:48:07;13.80;;;6.15;;
14171;SDS011;7165;52.388;4.928;2023-02-02T14:50:42;13.00;;;5.65;;
14171;SDS011;7165;52.388;4.928;2023-02-02T14:53:18;14.38;;;5.60;;
14171;SDS011;7165;52.388;4.928;2023-02-02T14:55:50;9.95;;;5.00;;
14171;SDS011;7165;52.388;4.928;2023-02-02T14:58:21;11.95;;;5.40;;
14171;SDS011;7165;52.388;4.928;2023-02-02T15:00:55;10.55;;;5.18;;
14171;SDS011;7165;52.388;4.928;2023-02-02T15:03:45;9.48;;;5.05;;
14171;SDS011;7165;52.388;4.928;2023-02-02T15:06:24;11.68;;;6.03;;
14171;SDS011;7165;52.388;4.928;2023-02-02T15:14:52;9.93;;;5.60;;
14171;SDS011;7165;52.388;4.928;2023-02-02T15:17:28;19.80;;;5.20;;
14171;SDS011;7165;52.388;4.928;2023-02-02T15:20:05;7.88;;;4.90;;
14171;SDS011;7165;52.388;4.928;2023-02-02T15:22:40;10.68;;;5.68;;
14171;SDS011;7165;52.388;4.928;2023-02-02T15:25:12;10.65;;;5.10;;
14171;SDS011;7165;52.388;4.928;2023-02-02T15:27:50;15.18;;;6.05;;
14171;SDS011;7165;52.388;4.928;2023-02-02T15:30:21;11.25;;;5.65;;
14171;SDS011;7165;52.388;4.928;2023-02-02T15:32:51;14.82;;;7.40;;
14171;SDS011;7165;52.388;4.928;2023-02-02T15:35:21;15.02;;;5.53;;
14171;SDS011;7165;52.388;4.928;2023-02-02T15:37:52;16.00;;;6.47;;
14171;SDS011;7165;52.388;4.928;2023-02-02T15:40:24;10.88;;;4.78;;
14171;SDS011;7165;52.388;4.928;2023-02-02T15:42:55;9.60;;;4.93;;
14171;SDS011;7165;52.388;4.928;2023-02-02T15:45:29;12.43;;;4.72;;